This is the latest recevied weather packets stored in our database for station/object N4DBJ. If no packets are shown the sender has not sent any weather packets the latest 1 day(s).
| Time | Temp. | Humidity | Pressure | Rain* | Wind** | Luminosity | Snow |
|---|---|---|---|---|---|---|---|
| 1778052760 | 15.56° C | 99% | 1004.9 hPa | 0 mm | - | 0 W/m² | - |
| 1778052155 | 17.78° C | 99% | 1004.5 hPa | 0 mm | - | 0 W/m² | - |
| 1778051853 | 17.78° C | 99% | 1004.3 hPa | 0 mm | - | 0 W/m² | - |
| 1778051247 | 17.78° C | 99% | 1004.5 hPa | 0 mm | - | 0 W/m² | - |
| 1778050944 | 17.78° C | 99% | 1004.4 hPa | 0 mm | - | 0 W/m² | - |
| 1778050642 | 17.78° C | 99% | 1004.3 hPa | 0 mm | - | 0 W/m² | - |
| 1778050035 | 17.78° C | 99% | 1004.3 hPa | 0 mm | - | 0 W/m² | - |
| 1778049731 | 17.78° C | 99% | 1004.1 hPa | 0 mm | - | 0 W/m² | - |
| 1778049429 | 17.78° C | 99% | 1003.9 hPa | 0 mm | - | 0 W/m² | - |
| 1778049126 | 17.78° C | 99% | 1004.1 hPa | 0 mm | - | 0 W/m² | - |
| 1778048521 | 18.33° C | 97% | 1003.8 hPa | 0 mm | - | 0 W/m² | - |
| 1778047914 | 18.33° C | 96% | 1003.4 hPa | 0 mm | - | 0 W/m² | - |
| 1778047007 | 19.44° C | 92% | 1003.6 hPa | 0 mm | - | 0 W/m² | - |
| 1778046401 | 20° C | 88% | 1003.3 hPa | 0 mm | - | 0 W/m² | - |
| 1778046096 | 20° C | 86% | 1003.9 hPa | 0 mm | - | 0 W/m² | - |
| 1778045794 | 20° C | 84% | 1004 hPa | 0 mm | - | 0 W/m² | - |
| 1778044888 | 20° C | 84% | 1004.2 hPa | 0 mm | - | 0 W/m² | - |
| 1778044585 | 20° C | 85% | 1004.1 hPa | 0 mm | - | 0 W/m² | - |
| 1778044281 | 20° C | 85% | 1004.4 hPa | 0 mm | - | 0 W/m² | - |
| 1778043980 | 20° C | 84% | 1004.3 hPa | 0 mm | - | 0 W/m² | - |
| 1778043070 | 19.44° C | 87% | 1004.5 hPa | 0 mm | - | 0 W/m² | - |
| 1778042768 | 19.44° C | 86% | 1004.5 hPa | 0 mm | - | 0 W/m² | - |
| 1778041860 | 19.44° C | 87% | 1004.5 hPa | 0 mm | - | 0 W/m² | - |
| 1778041256 | 18.89° C | 89% | 1004.4 hPa | 0 mm | - | 0 W/m² | - |
| 1778040954 | 18.33° C | 93% | 1004.5 hPa | 0 mm | - | 0 W/m² | - |
* Rain latest hour (hover to see other rain measurements)
** Current wind speed in m/s (hover to see current wind gust speed)